Huvudsida
METAR-TAF:

METAR-TAF

Flygplatser :

Tromsø flygplats

Tromsø, Norge

latitud: 69-41N, longitud: 018-55E, höjd: 1 m

Aktuellt väderrapport

Denna rapport gjordes för 35 minuter sedan, klockan 22:20 UTC
Vind 6 kt från ost
Temperatur -8°C
Fuktighet 85%
Tryck 1015 hPa
Sikt 10 km eller mer
Inga moln under 1 500 m eller inga cumulonimbus

METAR: ENTC 112220Z 08006KT CAVOK M08/M10 Q1015 RMK WIND 2600FT 16017KT

Tid: 23:55 (22:55 UTC)

Väderprognos

Prognos gäller från 11 kl. 18 UTC till 12 kl. 18 UTC
Vind 5 kt från sydväst
Sikt 10 km eller mer
Få moln på en höjd av 5000 ft

TAF: ENTC 1118/1218 22005KT 9999 FEW050

Aktuella väderrapporter och prognoser från 4000 flygplatser (METAR- och TAF-rapporter).

De tillgängliga stationerna syns som gula och röda prickar på kartan.

För musen över prickarna för att se namnen på stationerna.

Klicka sedan för att få väderrapporter och prognoser.

För att ändra kartan: Klicka på de gröna knapparna med ett svart kors på för att zooma in; den gröna knappen med ett streck på för att zooma ut; eller på de gröna pilarna för angränsande kartor.


METAR-TAF: